sensor_id;sensor_type;location;lat;lon;timestamp;P1;durP1;ratioP1;P2;durP2;ratioP2
11220;SDS011;8517;53.546;10.104;2023-03-23T00:01:29;9.50;;;5.00;;
11220;SDS011;8517;53.546;10.104;2023-03-23T00:04:03;5.27;;;4.53;;
11220;SDS011;8517;53.546;10.104;2023-03-23T00:06:30;6.83;;;4.70;;
11220;SDS011;8517;53.546;10.104;2023-03-23T00:08:58;7.67;;;5.20;;
11220;SDS011;8517;53.546;10.104;2023-03-23T00:11:27;7.63;;;4.70;;
11220;SDS011;8517;53.546;10.104;2023-03-23T00:13:55;6.97;;;5.03;;
11220;SDS011;8517;53.546;10.104;2023-03-23T00:16:26;7.93;;;5.60;;
11220;SDS011;8517;53.546;10.104;2023-03-23T00:18:57;9.60;;;5.03;;
11220;SDS011;8517;53.546;10.104;2023-03-23T00:21:31;7.97;;;5.40;;
11220;SDS011;8517;53.546;10.104;2023-03-23T00:24:01;6.80;;;6.03;;
11220;SDS011;8517;53.546;10.104;2023-03-23T00:26:29;6.87;;;5.57;;
11220;SDS011;8517;53.546;10.104;2023-03-23T00:28:58;6.60;;;5.97;;
11220;SDS011;8517;53.546;10.104;2023-03-23T00:31:26;7.03;;;5.77;;
11220;SDS011;8517;53.546;10.104;2023-03-23T00:33:57;7.77;;;6.77;;
11220;SDS011;8517;53.546;10.104;2023-03-23T00:36:26;8.50;;;7.10;;
11220;SDS011;8517;53.546;10.104;2023-03-23T00:38:54;8.67;;;6.87;;
11220;SDS011;8517;53.546;10.104;2023-03-23T00:41:24;10.53;;;8.20;;
11220;SDS011;8517;53.546;10.104;2023-03-23T00:43:51;7.77;;;6.93;;
11220;SDS011;8517;53.546;10.104;2023-03-23T00:46:18;8.00;;;7.03;;
11220;SDS011;8517;53.546;10.104;2023-03-23T00:48:47;8.63;;;7.73;;
11220;SDS011;8517;53.546;10.104;2023-03-23T00:51:15;8.43;;;7.53;;
11220;SDS011;8517;53.546;10.104;2023-03-23T00:53:43;10.00;;;7.93;;
11220;SDS011;8517;53.546;10.104;2023-03-23T00:56:11;9.03;;;7.93;;
11220;SDS011;8517;53.546;10.104;2023-03-23T00:58:39;8.93;;;8.03;;
11220;SDS011;8517;53.546;10.104;2023-03-23T01:01:06;8.43;;;7.57;;
11220;SDS011;8517;53.546;10.104;2023-03-23T01:03:32;10.60;;;7.80;;
11220;SDS011;8517;53.546;10.104;2023-03-23T01:06:05;9.17;;;8.20;;
11220;SDS011;8517;53.546;10.104;2023-03-23T01:08:33;8.77;;;7.93;;
11220;SDS011;8517;53.546;10.104;2023-03-23T01:11:02;9.13;;;8.23;;
11220;SDS011;8517;53.546;10.104;2023-03-23T01:13:30;10.70;;;9.03;;
11220;SDS011;8517;53.546;10.104;2023-03-23T01:15:57;10.40;;;9.23;;
11220;SDS011;8517;53.546;10.104;2023-03-23T01:18:23;11.73;;;8.83;;
11220;SDS011;8517;53.546;10.104;2023-03-23T01:20:50;9.37;;;8.47;;
11220;SDS011;8517;53.546;10.104;2023-03-23T01:23:18;8.67;;;7.80;;
11220;SDS011;8517;53.546;10.104;2023-03-23T01:25:45;10.40;;;9.03;;
11220;SDS011;8517;53.546;10.104;2023-03-23T01:28:12;9.90;;;8.90;;
11220;SDS011;8517;53.546;10.104;2023-03-23T01:30:39;10.50;;;9.10;;
11220;SDS011;8517;53.546;10.104;2023-03-23T01:33:05;11.83;;;9.40;;
11220;SDS011;8517;53.546;10.104;2023-03-23T01:35:32;10.23;;;9.00;;
11220;SDS011;8517;53.546;10.104;2023-03-23T01:38:02;10.03;;;9.03;;
11220;SDS011;8517;53.546;10.104;2023-03-23T01:40:31;9.90;;;8.90;;
11220;SDS011;8517;53.546;10.104;2023-03-23T01:42:58;10.63;;;8.63;;
11220;SDS011;8517;53.546;10.104;2023-03-23T01:48:07;10.40;;;9.40;;
11220;SDS011;8517;53.546;10.104;2023-03-23T01:50:40;14.83;;;9.03;;
11220;SDS011;8517;53.546;10.104;2023-03-23T01:53:12;10.53;;;8.77;;
11220;SDS011;8517;53.546;10.104;2023-03-23T01:55:41;11.20;;;8.70;;
11220;SDS011;8517;53.546;10.104;2023-03-23T01:58:13;10.07;;;9.07;;
11220;SDS011;8517;53.546;10.104;2023-03-23T02:00:42;11.17;;;8.80;;
11220;SDS011;8517;53.546;10.104;2023-03-23T02:03:10;10.60;;;8.67;;
11220;SDS011;8517;53.546;10.104;2023-03-23T02:05:41;11.43;;;8.67;;
11220;SDS011;8517;53.546;10.104;2023-03-23T02:08:09;10.37;;;8.97;;
11220;SDS011;8517;53.546;10.104;2023-03-23T02:10:38;10.57;;;8.03;;
11220;SDS011;8517;53.546;10.104;2023-03-23T02:13:07;8.87;;;7.77;;
11220;SDS011;8517;53.546;10.104;2023-03-23T02:15:41;9.60;;;8.70;;
11220;SDS011;8517;53.546;10.104;2023-03-23T02:18:16;10.00;;;8.43;;
11220;SDS011;8517;53.546;10.104;2023-03-23T02:21:08;8.83;;;7.97;;
11220;SDS011;8517;53.546;10.104;2023-03-23T02:26:53;10.17;;;8.67;;
11220;SDS011;8517;53.546;10.104;2023-03-23T02:32:26;11.40;;;8.50;;
11220;SDS011;8517;53.546;10.104;2023-03-23T02:35:10;10.83;;;8.50;;
11220;SDS011;8517;53.546;10.104;2023-03-23T02:37:39;9.70;;;8.57;;
11220;SDS011;8517;53.546;10.104;2023-03-23T02:40:14;10.07;;;8.63;;
11220;SDS011;8517;53.546;10.104;2023-03-23T02:42:45;8.67;;;7.80;;
11220;SDS011;8517;53.546;10.104;2023-03-23T02:45:15;12.13;;;8.67;;
11220;SDS011;8517;53.546;10.104;2023-03-23T02:47:43;9.47;;;8.40;;
11220;SDS011;8517;53.546;10.104;2023-03-23T02:50:13;8.50;;;7.70;;
11220;SDS011;8517;53.546;10.104;2023-03-23T02:52:41;9.50;;;8.23;;
11220;SDS011;8517;53.546;10.104;2023-03-23T02:55:10;8.53;;;7.60;;
11220;SDS011;8517;53.546;10.104;2023-03-23T02:57:39;8.90;;;7.93;;
11220;SDS011;8517;53.546;10.104;2023-03-23T03:00:07;8.60;;;7.67;;
11220;SDS011;8517;53.546;10.104;2023-03-23T03:02:46;7.97;;;7.17;;
11220;SDS011;8517;53.546;10.104;2023-03-23T03:05:23;8.80;;;8.00;;
11220;SDS011;8517;53.546;10.104;2023-03-23T03:08:15;8.93;;;8.00;;
11220;SDS011;8517;53.546;10.104;2023-03-23T03:10:51;8.87;;;7.97;;
11220;SDS011;8517;53.546;10.104;2023-03-23T03:13:30;9.27;;;8.27;;
11220;SDS011;8517;53.546;10.104;2023-03-23T03:16:05;8.30;;;7.57;;
11220;SDS011;8517;53.546;10.104;2023-03-23T03:18:42;9.23;;;8.00;;
11220;SDS011;8517;53.546;10.104;2023-03-23T03:21:14;9.90;;;8.47;;
11220;SDS011;8517;53.546;10.104;2023-03-23T03:23:45;10.03;;;8.17;;
11220;SDS011;8517;53.546;10.104;2023-03-23T03:26:14;8.73;;;7.23;;
11220;SDS011;8517;53.546;10.104;2023-03-23T03:28:45;9.10;;;8.20;;
11220;SDS011;8517;53.546;10.104;2023-03-23T03:31:13;8.37;;;7.57;;
11220;SDS011;8517;53.546;10.104;2023-03-23T03:33:43;10.20;;;8.73;;
11220;SDS011;8517;53.546;10.104;2023-03-23T03:36:15;9.60;;;8.60;;
11220;SDS011;8517;53.546;10.104;2023-03-23T03:38:45;8.40;;;7.60;;
11220;SDS011;8517;53.546;10.104;2023-03-23T03:41:14;9.80;;;7.97;;
11220;SDS011;8517;53.546;10.104;2023-03-23T03:43:42;8.93;;;8.03;;
11220;SDS011;8517;53.546;10.104;2023-03-23T03:46:09;10.13;;;7.60;;
11220;SDS011;8517;53.546;10.104;2023-03-23T03:48:36;12.70;;;8.93;;
11220;SDS011;8517;53.546;10.104;2023-03-23T03:51:02;9.17;;;8.17;;
11220;SDS011;8517;53.546;10.104;2023-03-23T03:53:31;9.23;;;8.33;;
11220;SDS011;8517;53.546;10.104;2023-03-23T03:55:58;9.03;;;8.10;;
11220;SDS011;8517;53.546;10.104;2023-03-23T03:58:26;8.73;;;7.83;;
11220;SDS011;8517;53.546;10.104;2023-03-23T04:00:56;10.37;;;8.03;;
11220;SDS011;8517;53.546;10.104;2023-03-23T04:03:24;9.37;;;8.23;;
11220;SDS011;8517;53.546;10.104;2023-03-23T04:05:51;9.87;;;8.80;;
11220;SDS011;8517;53.546;10.104;2023-03-23T04:08:20;9.87;;;8.87;;
11220;SDS011;8517;53.546;10.104;2023-03-23T04:10:49;8.07;;;7.27;;
11220;SDS011;8517;53.546;10.104;2023-03-23T04:13:16;10.97;;;8.43;;
11220;SDS011;8517;53.546;10.104;2023-03-23T04:15:43;9.40;;;8.50;;
11220;SDS011;8517;53.546;10.104;2023-03-23T04:18:11;9.70;;;8.80;;
11220;SDS011;8517;53.546;10.104;2023-03-23T04:20:40;9.97;;;8.77;;
11220;SDS011;8517;53.546;10.104;2023-03-23T04:23:07;10.10;;;9.03;;
11220;SDS011;8517;53.546;10.104;2023-03-23T04:25:34;10.03;;;8.53;;
11220;SDS011;8517;53.546;10.104;2023-03-23T04:28:02;10.13;;;8.93;;
11220;SDS011;8517;53.546;10.104;2023-03-23T04:30:29;10.60;;;8.83;;
11220;SDS011;8517;53.546;10.104;2023-03-23T04:32:57;10.50;;;9.20;;
11220;SDS011;8517;53.546;10.104;2023-03-23T04:35:24;9.67;;;8.67;;
11220;SDS011;8517;53.546;10.104;2023-03-23T04:37:52;10.37;;;9.33;;
11220;SDS011;8517;53.546;10.104;2023-03-23T04:40:20;9.50;;;8.53;;
11220;SDS011;8517;53.546;10.104;2023-03-23T04:42:47;9.73;;;8.83;;
11220;SDS011;8517;53.546;10.104;2023-03-23T04:45:19;9.93;;;8.63;;
11220;SDS011;8517;53.546;10.104;2023-03-23T04:47:47;10.47;;;9.40;;
11220;SDS011;8517;53.546;10.104;2023-03-23T04:50:18;10.17;;;9.17;;
11220;SDS011;8517;53.546;10.104;2023-03-23T04:52:49;9.30;;;8.40;;
11220;SDS011;8517;53.546;10.104;2023-03-23T04:55:16;10.20;;;8.83;;
11220;SDS011;8517;53.546;10.104;2023-03-23T04:57:44;9.50;;;8.60;;
11220;SDS011;8517;53.546;10.104;2023-03-23T05:00:11;10.37;;;9.27;;
11220;SDS011;8517;53.546;10.104;2023-03-23T05:02:42;11.00;;;8.93;;
11220;SDS011;8517;53.546;10.104;2023-03-23T05:05:12;11.43;;;8.93;;
11220;SDS011;8517;53.546;10.104;2023-03-23T05:07:40;10.60;;;9.53;;
11220;SDS011;8517;53.546;10.104;2023-03-23T05:10:08;10.97;;;9.37;;
11220;SDS011;8517;53.546;10.104;2023-03-23T05:12:36;10.00;;;9.00;;
11220;SDS011;8517;53.546;10.104;2023-03-23T05:15:04;10.13;;;9.13;;
11220;SDS011;8517;53.546;10.104;2023-03-23T05:17:32;10.03;;;8.33;;
11220;SDS011;8517;53.546;10.104;2023-03-23T05:20:01;8.47;;;7.70;;
11220;SDS011;8517;53.546;10.104;2023-03-23T05:22:30;9.40;;;8.40;;
11220;SDS011;8517;53.546;10.104;2023-03-23T05:24:57;8.83;;;7.93;;
11220;SDS011;8517;53.546;10.104;2023-03-23T05:27:24;9.57;;;8.27;;
11220;SDS011;8517;53.546;10.104;2023-03-23T05:29:53;9.83;;;8.90;;
11220;SDS011;8517;53.546;10.104;2023-03-23T05:32:19;10.20;;;7.47;;
11220;SDS011;8517;53.546;10.104;2023-03-23T05:34:53;8.40;;;7.57;;
11220;SDS011;8517;53.546;10.104;2023-03-23T05:37:22;8.80;;;7.43;;
11220;SDS011;8517;53.546;10.104;2023-03-23T05:39:49;20.13;;;16.70;;
11220;SDS011;8517;53.546;10.104;2023-03-23T05:42:18;8.67;;;7.67;;
11220;SDS011;8517;53.546;10.104;2023-03-23T05:44:45;10.07;;;7.60;;
11220;SDS011;8517;53.546;10.104;2023-03-23T05:47:12;9.07;;;6.40;;
11220;SDS011;8517;53.546;10.104;2023-03-23T05:49:39;8.80;;;6.20;;
11220;SDS011;8517;53.546;10.104;2023-03-23T05:52:06;8.73;;;6.80;;
11220;SDS011;8517;53.546;10.104;2023-03-23T05:54:34;30.10;;;22.47;;
11220;SDS011;8517;53.546;10.104;2023-03-23T05:57:02;7.77;;;6.87;;
11220;SDS011;8517;53.546;10.104;2023-03-23T05:59:29;7.20;;;6.50;;
11220;SDS011;8517;53.546;10.104;2023-03-23T06:01:58;7.57;;;6.20;;
11220;SDS011;8517;53.546;10.104;2023-03-23T06:04:28;7.37;;;6.60;;
11220;SDS011;8517;53.546;10.104;2023-03-23T06:06:55;9.30;;;5.90;;
11220;SDS011;8517;53.546;10.104;2023-03-23T06:09:24;7.03;;;5.97;;
11220;SDS011;8517;53.546;10.104;2023-03-23T06:11:53;9.67;;;6.33;;
11220;SDS011;8517;53.546;10.104;2023-03-23T06:14:19;5.87;;;5.20;;
11220;SDS011;8517;53.546;10.104;2023-03-23T06:16:48;5.80;;;5.30;;
11220;SDS011;8517;53.546;10.104;2023-03-23T06:19:15;6.10;;;5.50;;
11220;SDS011;8517;53.546;10.104;2023-03-23T06:21:42;12.13;;;5.97;;
11220;SDS011;8517;53.546;10.104;2023-03-23T06:24:12;7.00;;;5.17;;
11220;SDS011;8517;53.546;10.104;2023-03-23T06:26:43;6.40;;;5.23;;
11220;SDS011;8517;53.546;10.104;2023-03-23T06:29:11;7.17;;;5.50;;
11220;SDS011;8517;53.546;10.104;2023-03-23T06:31:38;8.33;;;4.60;;
11220;SDS011;8517;53.546;10.104;2023-03-23T06:34:07;5.50;;;4.90;;
11220;SDS011;8517;53.546;10.104;2023-03-23T06:36:34;5.60;;;4.83;;
11220;SDS011;8517;53.546;10.104;2023-03-23T06:39:02;6.93;;;4.87;;
11220;SDS011;8517;53.546;10.104;2023-03-23T06:41:29;8.57;;;4.43;;
11220;SDS011;8517;53.546;10.104;2023-03-23T06:43:56;7.23;;;4.37;;
11220;SDS011;8517;53.546;10.104;2023-03-23T06:46:24;6.20;;;3.50;;
11220;SDS011;8517;53.546;10.104;2023-03-23T06:48:52;6.67;;;4.27;;
11220;SDS011;8517;53.546;10.104;2023-03-23T06:51:19;4.70;;;4.10;;
11220;SDS011;8517;53.546;10.104;2023-03-23T06:53:46;6.40;;;4.60;;
11220;SDS011;8517;53.546;10.104;2023-03-23T06:56:13;5.67;;;4.17;;
11220;SDS011;8517;53.546;10.104;2023-03-23T06:58:40;4.70;;;3.80;;
11220;SDS011;8517;53.546;10.104;2023-03-23T07:01:08;6.70;;;3.60;;
11220;SDS011;8517;53.546;10.104;2023-03-23T07:03:37;4.20;;;3.63;;
11220;SDS011;8517;53.546;10.104;2023-03-23T07:06:04;6.30;;;3.60;;
11220;SDS011;8517;53.546;10.104;2023-03-23T07:08:32;4.33;;;3.77;;
11220;SDS011;8517;53.546;10.104;2023-03-23T07:10:59;5.67;;;4.00;;
11220;SDS011;8517;53.546;10.104;2023-03-23T07:13:25;4.37;;;3.40;;
11220;SDS011;8517;53.546;10.104;2023-03-23T07:15:52;4.20;;;3.67;;
11220;SDS011;8517;53.546;10.104;2023-03-23T07:18:19;4.10;;;3.53;;
11220;SDS011;8517;53.546;10.104;2023-03-23T07:20:48;3.80;;;3.30;;
11220;SDS011;8517;53.546;10.104;2023-03-23T07:23:16;4.77;;;3.87;;
11220;SDS011;8517;53.546;10.104;2023-03-23T07:25:43;4.03;;;3.57;;
11220;SDS011;8517;53.546;10.104;2023-03-23T07:28:11;3.93;;;3.53;;
11220;SDS011;8517;53.546;10.104;2023-03-23T07:30:38;4.83;;;3.83;;
11220;SDS011;8517;53.546;10.104;2023-03-23T07:33:06;6.17;;;3.43;;
11220;SDS011;8517;53.546;10.104;2023-03-23T07:35:34;4.33;;;3.70;;
11220;SDS011;8517;53.546;10.104;2023-03-23T07:38:03;5.40;;;3.53;;
11220;SDS011;8517;53.546;10.104;2023-03-23T07:40:31;5.50;;;3.40;;
11220;SDS011;8517;53.546;10.104;2023-03-23T07:42:59;4.00;;;3.60;;
11220;SDS011;8517;53.546;10.104;2023-03-23T07:45:27;8.60;;;6.70;;
11220;SDS011;8517;53.546;10.104;2023-03-23T07:47:55;5.67;;;3.33;;
11220;SDS011;8517;53.546;10.104;2023-03-23T07:50:21;6.03;;;3.20;;
11220;SDS011;8517;53.546;10.104;2023-03-23T07:52:49;3.43;;;2.90;;
11220;SDS011;8517;53.546;10.104;2023-03-23T07:55:19;3.83;;;3.30;;
11220;SDS011;8517;53.546;10.104;2023-03-23T07:57:46;5.27;;;3.37;;
11220;SDS011;8517;53.546;10.104;2023-03-23T08:00:14;3.23;;;2.93;;
11220;SDS011;8517;53.546;10.104;2023-03-23T08:02:44;6.47;;;3.73;;
11220;SDS011;8517;53.546;10.104;2023-03-23T08:05:11;3.63;;;3.30;;
11220;SDS011;8517;53.546;10.104;2023-03-23T08:07:39;3.93;;;3.57;;
11220;SDS011;8517;53.546;10.104;2023-03-23T08:10:07;5.73;;;3.87;;
11220;SDS011;8517;53.546;10.104;2023-03-23T08:12:38;4.27;;;3.83;;
11220;SDS011;8517;53.546;10.104;2023-03-23T08:15:07;4.93;;;4.10;;
11220;SDS011;8517;53.546;10.104;2023-03-23T08:17:37;4.30;;;3.90;;
11220;SDS011;8517;53.546;10.104;2023-03-23T08:20:05;4.90;;;3.47;;
11220;SDS011;8517;53.546;10.104;2023-03-23T08:22:35;5.07;;;4.37;;
11220;SDS011;8517;53.546;10.104;2023-03-23T08:25:03;5.10;;;4.10;;
11220;SDS011;8517;53.546;10.104;2023-03-23T08:27:31;4.50;;;4.10;;
11220;SDS011;8517;53.546;10.104;2023-03-23T08:29:59;5.20;;;3.97;;
11220;SDS011;8517;53.546;10.104;2023-03-23T08:32:26;4.63;;;3.43;;
11220;SDS011;8517;53.546;10.104;2023-03-23T08:34:53;3.77;;;3.37;;
11220;SDS011;8517;53.546;10.104;2023-03-23T08:37:21;4.13;;;3.73;;
11220;SDS011;8517;53.546;10.104;2023-03-23T08:39:50;4.00;;;3.60;;
11220;SDS011;8517;53.546;10.104;2023-03-23T08:42:18;4.10;;;3.70;;
11220;SDS011;8517;53.546;10.104;2023-03-23T08:44:45;5.50;;;3.80;;
11220;SDS011;8517;53.546;10.104;2023-03-23T08:47:13;3.87;;;2.80;;
11220;SDS011;8517;53.546;10.104;2023-03-23T08:49:41;4.60;;;4.20;;
11220;SDS011;8517;53.546;10.104;2023-03-23T08:52:08;4.50;;;4.00;;
11220;SDS011;8517;53.546;10.104;2023-03-23T08:54:35;8.03;;;4.00;;
11220;SDS011;8517;53.546;10.104;2023-03-23T08:57:03;7.67;;;4.23;;
11220;SDS011;8517;53.546;10.104;2023-03-23T08:59:29;6.00;;;4.50;;
11220;SDS011;8517;53.546;10.104;2023-03-23T09:01:56;6.87;;;3.80;;
11220;SDS011;8517;53.546;10.104;2023-03-23T09:04:24;3.73;;;3.30;;
11220;SDS011;8517;53.546;10.104;2023-03-23T09:06:53;4.27;;;3.03;;
11220;SDS011;8517;53.546;10.104;2023-03-23T09:09:22;5.73;;;3.23;;
11220;SDS011;8517;53.546;10.104;2023-03-23T09:11:48;4.00;;;2.73;;
11220;SDS011;8517;53.546;10.104;2023-03-23T09:14:15;4.33;;;2.70;;
11220;SDS011;8517;53.546;10.104;2023-03-23T09:16:42;5.23;;;2.80;;
11220;SDS011;8517;53.546;10.104;2023-03-23T09:19:10;4.97;;;2.63;;
11220;SDS011;8517;53.546;10.104;2023-03-23T09:21:41;3.87;;;2.10;;
11220;SDS011;8517;53.546;10.104;2023-03-23T09:24:10;4.43;;;2.03;;
11220;SDS011;8517;53.546;10.104;2023-03-23T09:26:37;6.53;;;2.07;;
11220;SDS011;8517;53.546;10.104;2023-03-23T09:29:04;3.97;;;2.13;;
11220;SDS011;8517;53.546;10.104;2023-03-23T09:31:31;5.23;;;2.00;;
11220;SDS011;8517;53.546;10.104;2023-03-23T09:33:58;4.67;;;2.03;;
11220;SDS011;8517;53.546;10.104;2023-03-23T09:36:26;11.20;;;5.47;;
11220;SDS011;8517;53.546;10.104;2023-03-23T09:38:58;6.93;;;2.03;;
11220;SDS011;8517;53.546;10.104;2023-03-23T09:41:38;6.83;;;2.20;;
11220;SDS011;8517;53.546;10.104;2023-03-23T09:44:19;7.03;;;2.27;;
11220;SDS011;8517;53.546;10.104;2023-03-23T09:46:53;7.10;;;2.30;;
11220;SDS011;8517;53.546;10.104;2023-03-23T09:49:29;5.40;;;2.20;;
11220;SDS011;8517;53.546;10.104;2023-03-23T09:52:01;6.03;;;2.30;;
11220;SDS011;8517;53.546;10.104;2023-03-23T09:54:33;5.23;;;2.30;;
11220;SDS011;8517;53.546;10.104;2023-03-23T09:57:02;10.93;;;5.80;;
11220;SDS011;8517;53.546;10.104;2023-03-23T09:59:34;9.97;;;3.63;;
11220;SDS011;8517;53.546;10.104;2023-03-23T10:02:09;8.77;;;2.43;;
11220;SDS011;8517;53.546;10.104;2023-03-23T10:04:41;6.00;;;2.27;;
11220;SDS011;8517;53.546;10.104;2023-03-23T10:07:12;9.17;;;2.20;;
11220;SDS011;8517;53.546;10.104;2023-03-23T10:09:44;8.00;;;2.20;;
11220;SDS011;8517;53.546;10.104;2023-03-23T10:12:16;8.30;;;2.53;;
11220;SDS011;8517;53.546;10.104;2023-03-23T10:14:58;8.70;;;2.50;;
11220;SDS011;8517;53.546;10.104;2023-03-23T10:17:42;8.07;;;2.50;;
11220;SDS011;8517;53.546;10.104;2023-03-23T10:20:42;9.50;;;2.30;;
11220;SDS011;8517;53.546;10.104;2023-03-23T10:23:13;8.40;;;2.50;;
11220;SDS011;8517;53.546;10.104;2023-03-23T10:26:00;7.87;;;2.20;;
11220;SDS011;8517;53.546;10.104;2023-03-23T10:28:37;9.13;;;3.10;;
11220;SDS011;8517;53.546;10.104;2023-03-23T10:31:19;9.47;;;2.80;;
11220;SDS011;8517;53.546;10.104;2023-03-23T10:34:07;8.53;;;2.40;;
11220;SDS011;8517;53.546;10.104;2023-03-23T10:36:48;6.80;;;2.50;;
11220;SDS011;8517;53.546;10.104;2023-03-23T10:39:19;6.67;;;2.07;;
11220;SDS011;8517;53.546;10.104;2023-03-23T10:41:54;7.07;;;2.17;;
11220;SDS011;8517;53.546;10.104;2023-03-23T10:45:16;9.33;;;2.60;;
11220;SDS011;8517;53.546;10.104;2023-03-23T10:51:16;6.30;;;2.00;;
11220;SDS011;8517;53.546;10.104;2023-03-23T11:07:32;10.00;;;2.63;;
11220;SDS011;8517;53.546;10.104;2023-03-23T11:44:08;8.43;;;2.47;;
11220;SDS011;8517;53.546;10.104;2023-03-23T11:47:02;7.20;;;2.73;;
11220;SDS011;8517;53.546;10.104;2023-03-23T11:49:45;10.10;;;2.97;;
11220;SDS011;8517;53.546;10.104;2023-03-23T11:52:26;11.50;;;3.37;;
11220;SDS011;8517;53.546;10.104;2023-03-23T11:55:03;8.67;;;3.10;;
11220;SDS011;8517;53.546;10.104;2023-03-23T11:57:46;9.93;;;3.40;;
11220;SDS011;8517;53.546;10.104;2023-03-23T12:00:15;7.90;;;2.60;;
11220;SDS011;8517;53.546;10.104;2023-03-23T12:02:47;7.40;;;3.07;;
11220;SDS011;8517;53.546;10.104;2023-03-23T12:05:40;11.17;;;3.33;;
11220;SDS011;8517;53.546;10.104;2023-03-23T12:08:22;10.23;;;3.27;;
11220;SDS011;8517;53.546;10.104;2023-03-23T12:11:14;9.13;;;3.10;;
11220;SDS011;8517;53.546;10.104;2023-03-23T12:13:51;7.07;;;2.83;;
11220;SDS011;8517;53.546;10.104;2023-03-23T12:16:30;8.70;;;3.40;;
11220;SDS011;8517;53.546;10.104;2023-03-23T12:19:10;8.90;;;3.07;;
11220;SDS011;8517;53.546;10.104;2023-03-23T12:21:52;10.50;;;3.60;;
11220;SDS011;8517;53.546;10.104;2023-03-23T12:25:03;8.43;;;3.33;;
11220;SDS011;8517;53.546;10.104;2023-03-23T12:28:16;6.40;;;2.80;;
11220;SDS011;8517;53.546;10.104;2023-03-23T12:30:55;12.83;;;3.33;;
11220;SDS011;8517;53.546;10.104;2023-03-23T12:34:44;11.27;;;3.70;;
11220;SDS011;8517;53.546;10.104;2023-03-23T12:36:52;6.97;;;2.77;;
11220;SDS011;8517;53.546;10.104;2023-03-23T12:39:39;10.00;;;3.33;;
11220;SDS011;8517;53.546;10.104;2023-03-23T12:42:26;9.07;;;2.77;;
11220;SDS011;8517;53.546;10.104;2023-03-23T12:45:43;10.10;;;3.00;;
11220;SDS011;8517;53.546;10.104;2023-03-23T12:48:37;12.20;;;3.20;;
11220;SDS011;8517;53.546;10.104;2023-03-23T12:54:51;11.07;;;4.23;;
11220;SDS011;8517;53.546;10.104;2023-03-23T12:57:34;14.73;;;4.07;;
11220;SDS011;8517;53.546;10.104;2023-03-23T13:03:24;8.90;;;2.77;;
11220;SDS011;8517;53.546;10.104;2023-03-23T13:05:57;8.10;;;3.20;;
11220;SDS011;8517;53.546;10.104;2023-03-23T13:12:08;11.27;;;4.10;;
11220;SDS011;8517;53.546;10.104;2023-03-23T13:14:45;9.17;;;4.20;;
11220;SDS011;8517;53.546;10.104;2023-03-23T13:17:28;8.83;;;3.10;;
11220;SDS011;8517;53.546;10.104;2023-03-23T13:20:38;8.30;;;3.13;;
11220;SDS011;8517;53.546;10.104;2023-03-23T13:23:20;8.13;;;3.00;;
11220;SDS011;8517;53.546;10.104;2023-03-23T13:25:54;10.13;;;3.60;;
11220;SDS011;8517;53.546;10.104;2023-03-23T13:32:42;7.80;;;3.10;;
11220;SDS011;8517;53.546;10.104;2023-03-23T13:35:10;7.37;;;2.90;;
11220;SDS011;8517;53.546;10.104;2023-03-23T13:37:43;5.80;;;2.90;;
11220;SDS011;8517;53.546;10.104;2023-03-23T13:40:18;6.83;;;3.10;;
11220;SDS011;8517;53.546;10.104;2023-03-23T13:42:55;5.50;;;3.07;;
11220;SDS011;8517;53.546;10.104;2023-03-23T13:45:24;7.93;;;2.77;;
11220;SDS011;8517;53.546;10.104;2023-03-23T13:48:04;5.10;;;2.40;;
11220;SDS011;8517;53.546;10.104;2023-03-23T13:50:44;7.60;;;3.20;;
11220;SDS011;8517;53.546;10.104;2023-03-23T13:53:25;3.37;;;2.20;;
11220;SDS011;8517;53.546;10.104;2023-03-23T13:56:07;3.93;;;1.90;;
11220;SDS011;8517;53.546;10.104;2023-03-23T13:58:49;4.47;;;1.90;;
11220;SDS011;8517;53.546;10.104;2023-03-23T14:01:30;5.83;;;2.23;;
11220;SDS011;8517;53.546;10.104;2023-03-23T14:04:03;4.07;;;2.30;;
11220;SDS011;8517;53.546;10.104;2023-03-23T14:06:49;5.43;;;1.90;;
11220;SDS011;8517;53.546;10.104;2023-03-23T14:09:50;4.07;;;2.03;;
11220;SDS011;8517;53.546;10.104;2023-03-23T14:12:18;4.70;;;2.00;;
11220;SDS011;8517;53.546;10.104;2023-03-23T14:14:49;3.57;;;2.07;;
11220;SDS011;8517;53.546;10.104;2023-03-23T14:17:33;4.50;;;2.40;;
11220;SDS011;8517;53.546;10.104;2023-03-23T14:21:42;3.80;;;2.00;;
11220;SDS011;8517;53.546;10.104;2023-03-23T14:23:41;4.93;;;1.60;;
11220;SDS011;8517;53.546;10.104;2023-03-23T14:26:16;3.37;;;1.50;;
11220;SDS011;8517;53.546;10.104;2023-03-23T14:29:09;2.10;;;1.20;;
11220;SDS011;8517;53.546;10.104;2023-03-23T14:33:06;3.53;;;2.00;;
11220;SDS011;8517;53.546;10.104;2023-03-23T14:35:11;3.37;;;1.40;;
11220;SDS011;8517;53.546;10.104;2023-03-23T14:41:09;4.90;;;1.70;;
11220;SDS011;8517;53.546;10.104;2023-03-23T14:50:22;3.40;;;1.73;;
11220;SDS011;8517;53.546;10.104;2023-03-23T14:53:22;3.87;;;1.57;;
11220;SDS011;8517;53.546;10.104;2023-03-23T14:55:51;3.70;;;1.80;;
11220;SDS011;8517;53.546;10.104;2023-03-23T14:58:34;3.70;;;1.70;;
11220;SDS011;8517;53.546;10.104;2023-03-23T15:01:01;3.20;;;1.60;;
11220;SDS011;8517;53.546;10.104;2023-03-23T15:03:35;9.57;;;2.73;;
11220;SDS011;8517;53.546;10.104;2023-03-23T15:06:09;8.57;;;3.80;;
11220;SDS011;8517;53.546;10.104;2023-03-23T15:08:39;5.20;;;2.23;;
11220;SDS011;8517;53.546;10.104;2023-03-23T15:11:07;3.10;;;1.60;;
11220;SDS011;8517;53.546;10.104;2023-03-23T15:13:55;6.23;;;3.00;;
11220;SDS011;8517;53.546;10.104;2023-03-23T15:16:24;10.00;;;6.23;;
11220;SDS011;8517;53.546;10.104;2023-03-23T15:18:57;5.17;;;2.60;;
11220;SDS011;8517;53.546;10.104;2023-03-23T15:21:29;9.30;;;5.33;;
11220;SDS011;8517;53.546;10.104;2023-03-23T15:23:57;5.17;;;2.30;;
11220;SDS011;8517;53.546;10.104;2023-03-23T15:26:29;4.53;;;2.87;;
11220;SDS011;8517;53.546;10.104;2023-03-23T15:29:02;6.90;;;2.63;;
11220;SDS011;8517;53.546;10.104;2023-03-23T15:31:42;5.20;;;2.20;;
11220;SDS011;8517;53.546;10.104;2023-03-23T15:34:20;5.53;;;2.27;;
11220;SDS011;8517;53.546;10.104;2023-03-23T15:36:54;4.93;;;2.17;;
11220;SDS011;8517;53.546;10.104;2023-03-23T15:39:24;5.57;;;2.10;;
11220;SDS011;8517;53.546;10.104;2023-03-23T15:41:53;5.83;;;2.37;;
11220;SDS011;8517;53.546;10.104;2023-03-23T15:44:22;5.53;;;2.33;;
11220;SDS011;8517;53.546;10.104;2023-03-23T15:47:03;6.33;;;2.73;;
11220;SDS011;8517;53.546;10.104;2023-03-23T15:49:44;6.30;;;2.30;;
11220;SDS011;8517;53.546;10.104;2023-03-23T15:52:13;4.57;;;1.90;;
11220;SDS011;8517;53.546;10.104;2023-03-23T15:54:45;3.53;;;1.80;;
11220;SDS011;8517;53.546;10.104;2023-03-23T15:57:13;5.70;;;2.07;;
11220;SDS011;8517;53.546;10.104;2023-03-23T15:59:40;5.40;;;1.70;;
11220;SDS011;8517;53.546;10.104;2023-03-23T16:02:17;3.90;;;1.63;;
11220;SDS011;8517;53.546;10.104;2023-03-23T16:04:48;4.67;;;1.90;;
11220;SDS011;8517;53.546;10.104;2023-03-23T16:07:15;4.20;;;1.70;;
11220;SDS011;8517;53.546;10.104;2023-03-23T16:09:42;4.60;;;1.50;;
11220;SDS011;8517;53.546;10.104;2023-03-23T16:12:10;3.90;;;1.63;;
11220;SDS011;8517;53.546;10.104;2023-03-23T16:14:38;5.20;;;1.97;;
11220;SDS011;8517;53.546;10.104;2023-03-23T16:17:13;3.70;;;1.53;;
11220;SDS011;8517;53.546;10.104;2023-03-23T16:20:12;5.83;;;1.33;;
11220;SDS011;8517;53.546;10.104;2023-03-23T16:22:40;2.80;;;1.40;;
11220;SDS011;8517;53.546;10.104;2023-03-23T16:25:07;2.20;;;1.40;;
11220;SDS011;8517;53.546;10.104;2023-03-23T16:27:35;5.23;;;1.83;;
11220;SDS011;8517;53.546;10.104;2023-03-23T16:30:07;11.83;;;7.47;;
11220;SDS011;8517;53.546;10.104;2023-03-23T16:32:39;8.33;;;4.57;;
11220;SDS011;8517;53.546;10.104;2023-03-23T16:35:15;6.30;;;2.67;;
11220;SDS011;8517;53.546;10.104;2023-03-23T16:37:43;6.93;;;2.07;;
11220;SDS011;8517;53.546;10.104;2023-03-23T16:40:11;4.57;;;2.20;;
11220;SDS011;8517;53.546;10.104;2023-03-23T16:42:39;3.27;;;1.50;;